sensor_id;sensor_type;location;lat;lon;timestamp;P1;durP1;ratioP1;P2;durP2;ratioP2
48795;SDS011;34607;48.520;-1.330;2022-07-06T00:01:15;6.40;;;2.08;;
48795;SDS011;34607;48.520;-1.330;2022-07-06T00:03:43;4.32;;;2.20;;
48795;SDS011;34607;48.520;-1.330;2022-07-06T00:06:10;6.68;;;2.20;;
48795;SDS011;34607;48.520;-1.330;2022-07-06T00:08:38;6.65;;;2.42;;
48795;SDS011;34607;48.520;-1.330;2022-07-06T00:11:05;5.13;;;2.55;;
48795;SDS011;34607;48.520;-1.330;2022-07-06T00:13:33;5.72;;;2.30;;
48795;SDS011;34607;48.520;-1.330;2022-07-06T00:16:00;6.35;;;2.30;;
48795;SDS011;34607;48.520;-1.330;2022-07-06T00:18:27;7.65;;;2.55;;
48795;SDS011;34607;48.520;-1.330;2022-07-06T00:20:56;7.47;;;2.78;;
48795;SDS011;34607;48.520;-1.330;2022-07-06T00:23:24;7.40;;;2.38;;
48795;SDS011;34607;48.520;-1.330;2022-07-06T00:25:51;7.05;;;2.63;;
48795;SDS011;34607;48.520;-1.330;2022-07-06T00:28:18;5.35;;;2.38;;
48795;SDS011;34607;48.520;-1.330;2022-07-06T00:30:45;4.78;;;2.42;;
48795;SDS011;34607;48.520;-1.330;2022-07-06T00:33:12;8.15;;;2.33;;
48795;SDS011;34607;48.520;-1.330;2022-07-06T00:35:39;5.50;;;2.70;;
48795;SDS011;34607;48.520;-1.330;2022-07-06T00:38:08;6.35;;;2.55;;
48795;SDS011;34607;48.520;-1.330;2022-07-06T00:40:35;4.72;;;2.30;;
48795;SDS011;34607;48.520;-1.330;2022-07-06T00:43:02;7.57;;;2.50;;
48795;SDS011;34607;48.520;-1.330;2022-07-06T00:45:29;6.57;;;2.13;;
48795;SDS011;34607;48.520;-1.330;2022-07-06T00:47:56;5.95;;;2.42;;
48795;SDS011;34607;48.520;-1.330;2022-07-06T00:50:24;7.35;;;2.42;;
48795;SDS011;34607;48.520;-1.330;2022-07-06T00:52:52;4.68;;;2.33;;
48795;SDS011;34607;48.520;-1.330;2022-07-06T00:55:22;4.35;;;2.25;;
48795;SDS011;34607;48.520;-1.330;2022-07-06T00:57:51;7.00;;;2.15;;
48795;SDS011;34607;48.520;-1.330;2022-07-06T01:00:19;8.80;;;2.30;;
48795;SDS011;34607;48.520;-1.330;2022-07-06T01:02:48;5.72;;;2.60;;
48795;SDS011;34607;48.520;-1.330;2022-07-06T01:05:15;5.80;;;2.58;;
48795;SDS011;34607;48.520;-1.330;2022-07-06T01:07:44;4.57;;;2.22;;
48795;SDS011;34607;48.520;-1.330;2022-07-06T01:10:14;7.85;;;2.53;;
48795;SDS011;34607;48.520;-1.330;2022-07-06T01:12:45;5.55;;;3.10;;
48795;SDS011;34607;48.520;-1.330;2022-07-06T01:15:14;4.60;;;2.13;;
48795;SDS011;34607;48.520;-1.330;2022-07-06T01:17:43;6.07;;;3.47;;
48795;SDS011;34607;48.520;-1.330;2022-07-06T01:20:12;5.47;;;2.33;;
48795;SDS011;34607;48.520;-1.330;2022-07-06T01:22:40;9.98;;;2.83;;
48795;SDS011;34607;48.520;-1.330;2022-07-06T01:25:08;5.65;;;2.63;;
48795;SDS011;34607;48.520;-1.330;2022-07-06T01:27:36;6.18;;;2.60;;
48795;SDS011;34607;48.520;-1.330;2022-07-06T01:30:05;8.90;;;2.47;;
48795;SDS011;34607;48.520;-1.330;2022-07-06T01:32:34;4.65;;;2.55;;
48795;SDS011;34607;48.520;-1.330;2022-07-06T01:35:02;8.48;;;2.35;;
48795;SDS011;34607;48.520;-1.330;2022-07-06T01:37:33;7.05;;;2.67;;
48795;SDS011;34607;48.520;-1.330;2022-07-06T01:40:00;4.35;;;2.60;;
48795;SDS011;34607;48.520;-1.330;2022-07-06T01:42:29;6.00;;;2.72;;
48795;SDS011;34607;48.520;-1.330;2022-07-06T01:44:56;8.52;;;3.08;;
48795;SDS011;34607;48.520;-1.330;2022-07-06T01:47:24;10.05;;;3.03;;
48795;SDS011;34607;48.520;-1.330;2022-07-06T01:49:51;6.00;;;2.80;;
48795;SDS011;34607;48.520;-1.330;2022-07-06T01:52:20;9.25;;;3.00;;
48795;SDS011;34607;48.520;-1.330;2022-07-06T01:54:49;7.63;;;3.03;;
48795;SDS011;34607;48.520;-1.330;2022-07-06T01:57:16;11.05;;;3.28;;
48795;SDS011;34607;48.520;-1.330;2022-07-06T01:59:43;5.82;;;2.88;;
48795;SDS011;34607;48.520;-1.330;2022-07-06T02:02:12;5.93;;;3.13;;
48795;SDS011;34607;48.520;-1.330;2022-07-06T02:04:39;5.22;;;2.92;;
48795;SDS011;34607;48.520;-1.330;2022-07-06T02:07:06;5.07;;;2.70;;
48795;SDS011;34607;48.520;-1.330;2022-07-06T02:09:33;6.80;;;2.95;;
48795;SDS011;34607;48.520;-1.330;2022-07-06T02:12:02;6.32;;;3.15;;
48795;SDS011;34607;48.520;-1.330;2022-07-06T02:14:30;4.28;;;2.65;;
48795;SDS011;34607;48.520;-1.330;2022-07-06T02:16:57;4.90;;;2.67;;
48795;SDS011;34607;48.520;-1.330;2022-07-06T02:19:25;6.03;;;2.17;;
48795;SDS011;34607;48.520;-1.330;2022-07-06T02:21:52;3.78;;;2.38;;
48795;SDS011;34607;48.520;-1.330;2022-07-06T02:24:19;4.40;;;2.90;;
48795;SDS011;34607;48.520;-1.330;2022-07-06T02:26:46;7.80;;;3.63;;
48795;SDS011;34607;48.520;-1.330;2022-07-06T02:29:16;5.75;;;2.95;;
48795;SDS011;34607;48.520;-1.330;2022-07-06T02:31:43;4.57;;;2.20;;
48795;SDS011;34607;48.520;-1.330;2022-07-06T02:34:10;4.88;;;2.50;;
48795;SDS011;34607;48.520;-1.330;2022-07-06T02:36:37;5.55;;;2.78;;
48795;SDS011;34607;48.520;-1.330;2022-07-06T02:39:04;6.07;;;3.15;;
48795;SDS011;34607;48.520;-1.330;2022-07-06T02:41:31;5.82;;;2.80;;
48795;SDS011;34607;48.520;-1.330;2022-07-06T02:43:59;4.35;;;2.35;;
48795;SDS011;34607;48.520;-1.330;2022-07-06T02:46:27;5.22;;;3.15;;
48795;SDS011;34607;48.520;-1.330;2022-07-06T02:48:54;5.28;;;2.92;;
48795;SDS011;34607;48.520;-1.330;2022-07-06T02:51:22;5.53;;;2.70;;
48795;SDS011;34607;48.520;-1.330;2022-07-06T02:53:50;6.60;;;2.83;;
48795;SDS011;34607;48.520;-1.330;2022-07-06T02:56:17;5.65;;;2.58;;
48795;SDS011;34607;48.520;-1.330;2022-07-06T02:58:44;6.78;;;3.00;;
48795;SDS011;34607;48.520;-1.330;2022-07-06T03:01:13;4.65;;;2.67;;
48795;SDS011;34607;48.520;-1.330;2022-07-06T03:03:42;6.43;;;2.70;;
48795;SDS011;34607;48.520;-1.330;2022-07-06T03:06:10;4.25;;;2.72;;
48795;SDS011;34607;48.520;-1.330;2022-07-06T03:08:37;7.72;;;2.85;;
48795;SDS011;34607;48.520;-1.330;2022-07-06T03:11:04;5.50;;;2.83;;
48795;SDS011;34607;48.520;-1.330;2022-07-06T03:13:31;5.97;;;2.55;;
48795;SDS011;34607;48.520;-1.330;2022-07-06T03:15:59;4.10;;;2.40;;
48795;SDS011;34607;48.520;-1.330;2022-07-06T03:18:28;6.35;;;2.92;;
48795;SDS011;34607;48.520;-1.330;2022-07-06T03:20:56;6.65;;;3.05;;
48795;SDS011;34607;48.520;-1.330;2022-07-06T03:23:23;6.45;;;3.35;;
48795;SDS011;34607;48.520;-1.330;2022-07-06T03:25:50;8.18;;;3.03;;
48795;SDS011;34607;48.520;-1.330;2022-07-06T03:28:18;3.20;;;2.90;;
48795;SDS011;34607;48.520;-1.330;2022-07-06T03:30:45;7.80;;;3.15;;
48795;SDS011;34607;48.520;-1.330;2022-07-06T03:33:12;5.38;;;2.90;;
48795;SDS011;34607;48.520;-1.330;2022-07-06T03:35:40;6.00;;;2.90;;
48795;SDS011;34607;48.520;-1.330;2022-07-06T03:38:09;3.63;;;3.05;;
48795;SDS011;34607;48.520;-1.330;2022-07-06T03:40:39;9.93;;;3.22;;
48795;SDS011;34607;48.520;-1.330;2022-07-06T03:43:06;6.68;;;3.58;;
48795;SDS011;34607;48.520;-1.330;2022-07-06T03:45:35;6.00;;;3.47;;
48795;SDS011;34607;48.520;-1.330;2022-07-06T03:48:04;4.82;;;2.97;;
48795;SDS011;34607;48.520;-1.330;2022-07-06T03:50:34;5.20;;;3.25;;
48795;SDS011;34607;48.520;-1.330;2022-07-06T03:53:02;5.40;;;3.22;;
48795;SDS011;34607;48.520;-1.330;2022-07-06T03:55:30;7.43;;;3.63;;
48795;SDS011;34607;48.520;-1.330;2022-07-06T03:58:02;5.55;;;3.47;;
48795;SDS011;34607;48.520;-1.330;2022-07-06T04:00:29;6.60;;;3.17;;
48795;SDS011;34607;48.520;-1.330;2022-07-06T04:03:01;3.85;;;3.50;;
48795;SDS011;34607;48.520;-1.330;2022-07-06T04:05:33;6.40;;;3.33;;
48795;SDS011;34607;48.520;-1.330;2022-07-06T04:08:01;4.57;;;4.13;;
48795;SDS011;34607;48.520;-1.330;2022-07-06T04:10:37;6.35;;;3.97;;
48795;SDS011;34607;48.520;-1.330;2022-07-06T04:13:04;6.07;;;3.78;;
48795;SDS011;34607;48.520;-1.330;2022-07-06T04:15:32;5.30;;;3.60;;
48795;SDS011;34607;48.520;-1.330;2022-07-06T04:17:59;9.40;;;3.60;;
48795;SDS011;34607;48.520;-1.330;2022-07-06T04:20:31;5.93;;;3.40;;
48795;SDS011;34607;48.520;-1.330;2022-07-06T04:22:58;5.38;;;3.65;;
48795;SDS011;34607;48.520;-1.330;2022-07-06T04:25:26;6.72;;;4.45;;
48795;SDS011;34607;48.520;-1.330;2022-07-06T04:27:58;9.07;;;4.55;;
48795;SDS011;34607;48.520;-1.330;2022-07-06T04:30:27;7.72;;;3.95;;
48795;SDS011;34607;48.520;-1.330;2022-07-06T04:32:54;5.90;;;3.40;;
48795;SDS011;34607;48.520;-1.330;2022-07-06T04:35:24;5.57;;;3.50;;
48795;SDS011;34607;48.520;-1.330;2022-07-06T04:37:53;5.32;;;3.30;;
48795;SDS011;34607;48.520;-1.330;2022-07-06T04:40:20;7.05;;;4.00;;
48795;SDS011;34607;48.520;-1.330;2022-07-06T04:42:51;5.55;;;3.78;;
48795;SDS011;34607;48.520;-1.330;2022-07-06T04:45:20;7.47;;;4.10;;
48795;SDS011;34607;48.520;-1.330;2022-07-06T04:47:47;6.57;;;3.58;;
48795;SDS011;34607;48.520;-1.330;2022-07-06T04:50:16;5.60;;;3.10;;
48795;SDS011;34607;48.520;-1.330;2022-07-06T04:52:44;8.50;;;4.13;;
48795;SDS011;34607;48.520;-1.330;2022-07-06T04:55:12;6.13;;;3.47;;
48795;SDS011;34607;48.520;-1.330;2022-07-06T04:57:40;6.22;;;3.65;;
48795;SDS011;34607;48.520;-1.330;2022-07-06T05:00:09;6.68;;;3.28;;
48795;SDS011;34607;48.520;-1.330;2022-07-06T05:02:38;5.53;;;3.45;;
48795;SDS011;34607;48.520;-1.330;2022-07-06T05:05:06;7.43;;;3.95;;
48795;SDS011;34607;48.520;-1.330;2022-07-06T05:07:36;7.25;;;4.07;;
48795;SDS011;34607;48.520;-1.330;2022-07-06T05:10:06;5.60;;;4.32;;
48795;SDS011;34607;48.520;-1.330;2022-07-06T05:12:34;6.88;;;3.58;;
48795;SDS011;34607;48.520;-1.330;2022-07-06T05:15:02;7.93;;;5.03;;
48795;SDS011;34607;48.520;-1.330;2022-07-06T05:17:30;6.38;;;4.38;;
48795;SDS011;34607;48.520;-1.330;2022-07-06T05:20:01;8.13;;;4.93;;
48795;SDS011;34607;48.520;-1.330;2022-07-06T05:22:32;6.07;;;4.10;;
48795;SDS011;34607;48.520;-1.330;2022-07-06T05:25:00;12.80;;;4.93;;
48795;SDS011;34607;48.520;-1.330;2022-07-06T05:27:27;6.47;;;3.95;;
48795;SDS011;34607;48.520;-1.330;2022-07-06T05:29:55;10.60;;;4.80;;
48795;SDS011;34607;48.520;-1.330;2022-07-06T05:32:22;11.07;;;5.32;;
48795;SDS011;34607;48.520;-1.330;2022-07-06T05:34:49;10.57;;;5.40;;
48795;SDS011;34607;48.520;-1.330;2022-07-06T05:37:20;8.13;;;5.45;;
48795;SDS011;34607;48.520;-1.330;2022-07-06T05:39:48;11.27;;;6.10;;
48795;SDS011;34607;48.520;-1.330;2022-07-06T05:42:16;14.32;;;5.88;;
48795;SDS011;34607;48.520;-1.330;2022-07-06T05:44:45;9.65;;;6.03;;
48795;SDS011;34607;48.520;-1.330;2022-07-06T05:47:13;13.18;;;6.18;;
48795;SDS011;34607;48.520;-1.330;2022-07-06T05:49:58;8.45;;;5.20;;
48795;SDS011;34607;48.520;-1.330;2022-07-06T05:53:01;10.65;;;5.85;;
48795;SDS011;34607;48.520;-1.330;2022-07-06T05:55:30;11.55;;;6.75;;
48795;SDS011;34607;48.520;-1.330;2022-07-06T05:57:59;11.75;;;6.18;;
48795;SDS011;34607;48.520;-1.330;2022-07-06T06:00:29;10.50;;;6.63;;
48795;SDS011;34607;48.520;-1.330;2022-07-06T06:03:01;14.05;;;7.28;;
48795;SDS011;34607;48.520;-1.330;2022-07-06T06:05:29;12.85;;;6.20;;
48795;SDS011;34607;48.520;-1.330;2022-07-06T06:08:03;15.88;;;7.10;;
48795;SDS011;34607;48.520;-1.330;2022-07-06T06:10:31;14.82;;;6.70;;
48795;SDS011;34607;48.520;-1.330;2022-07-06T06:13:01;14.07;;;5.80;;
48795;SDS011;34607;48.520;-1.330;2022-07-06T06:15:29;10.27;;;6.20;;
48795;SDS011;34607;48.520;-1.330;2022-07-06T06:17:56;7.85;;;6.13;;
48795;SDS011;34607;48.520;-1.330;2022-07-06T06:20:23;10.88;;;6.90;;
48795;SDS011;34607;48.520;-1.330;2022-07-06T06:22:50;13.95;;;6.53;;
48795;SDS011;34607;48.520;-1.330;2022-07-06T06:25:20;8.48;;;5.47;;
48795;SDS011;34607;48.520;-1.330;2022-07-06T06:27:53;11.85;;;6.00;;
48795;SDS011;34607;48.520;-1.330;2022-07-06T06:30:21;13.68;;;6.47;;
48795;SDS011;34607;48.520;-1.330;2022-07-06T06:32:48;10.32;;;6.20;;
48795;SDS011;34607;48.520;-1.330;2022-07-06T06:35:15;12.48;;;6.13;;
48795;SDS011;34607;48.520;-1.330;2022-07-06T06:37:42;8.50;;;5.40;;
48795;SDS011;34607;48.520;-1.330;2022-07-06T06:40:10;10.45;;;5.90;;
48795;SDS011;34607;48.520;-1.330;2022-07-06T06:42:39;9.60;;;5.63;;
48795;SDS011;34607;48.520;-1.330;2022-07-06T06:45:10;9.40;;;5.72;;
48795;SDS011;34607;48.520;-1.330;2022-07-06T06:47:37;7.60;;;6.13;;
48795;SDS011;34607;48.520;-1.330;2022-07-06T06:50:04;12.50;;;6.35;;
48795;SDS011;34607;48.520;-1.330;2022-07-06T06:52:32;8.48;;;5.20;;
48795;SDS011;34607;48.520;-1.330;2022-07-06T06:54:59;8.00;;;5.53;;
48795;SDS011;34607;48.520;-1.330;2022-07-06T06:57:27;7.45;;;5.30;;
48795;SDS011;34607;48.520;-1.330;2022-07-06T06:59:56;9.93;;;5.65;;
48795;SDS011;34607;48.520;-1.330;2022-07-06T07:02:23;11.63;;;6.07;;
48795;SDS011;34607;48.520;-1.330;2022-07-06T07:04:50;10.18;;;5.90;;
48795;SDS011;34607;48.520;-1.330;2022-07-06T07:07:17;10.15;;;5.85;;
48795;SDS011;34607;48.520;-1.330;2022-07-06T07:09:44;10.50;;;5.65;;
48795;SDS011;34607;48.520;-1.330;2022-07-06T07:12:11;10.93;;;6.35;;
48795;SDS011;34607;48.520;-1.330;2022-07-06T07:14:40;9.50;;;6.18;;
48795;SDS011;34607;48.520;-1.330;2022-07-06T07:17:09;10.43;;;6.05;;
48795;SDS011;34607;48.520;-1.330;2022-07-06T07:19:36;9.90;;;5.50;;
48795;SDS011;34607;48.520;-1.330;2022-07-06T07:22:04;11.88;;;5.75;;
48795;SDS011;34607;48.520;-1.330;2022-07-06T07:24:31;10.43;;;5.07;;
48795;SDS011;34607;48.520;-1.330;2022-07-06T07:26:58;7.65;;;5.18;;
48795;SDS011;34607;48.520;-1.330;2022-07-06T07:29:25;7.32;;;4.82;;
48795;SDS011;34607;48.520;-1.330;2022-07-06T07:31:52;6.60;;;4.38;;
48795;SDS011;34607;48.520;-1.330;2022-07-06T07:34:21;7.85;;;4.13;;
48795;SDS011;34607;48.520;-1.330;2022-07-06T07:36:48;6.80;;;4.47;;
48795;SDS011;34607;48.520;-1.330;2022-07-06T07:39:15;8.65;;;4.65;;
48795;SDS011;34607;48.520;-1.330;2022-07-06T07:41:42;5.35;;;4.00;;
48795;SDS011;34607;48.520;-1.330;2022-07-06T07:44:09;6.43;;;4.13;;
48795;SDS011;34607;48.520;-1.330;2022-07-06T07:46:36;6.15;;;3.67;;
48795;SDS011;34607;48.520;-1.330;2022-07-06T07:49:03;5.35;;;3.50;;
48795;SDS011;34607;48.520;-1.330;2022-07-06T07:51:34;7.95;;;3.75;;
48795;SDS011;34607;48.520;-1.330;2022-07-06T07:54:03;6.00;;;4.30;;
48795;SDS011;34607;48.520;-1.330;2022-07-06T07:56:30;7.88;;;3.75;;
48795;SDS011;34607;48.520;-1.330;2022-07-06T07:58:57;6.68;;;3.50;;
48795;SDS011;34607;48.520;-1.330;2022-07-06T08:01:28;7.88;;;3.60;;
48795;SDS011;34607;48.520;-1.330;2022-07-06T08:03:55;8.60;;;4.60;;
48795;SDS011;34607;48.520;-1.330;2022-07-06T08:06:23;7.47;;;3.53;;
48795;SDS011;34607;48.520;-1.330;2022-07-06T08:08:51;5.30;;;3.03;;
48795;SDS011;34607;48.520;-1.330;2022-07-06T08:11:18;5.18;;;3.13;;
48795;SDS011;34607;48.520;-1.330;2022-07-06T08:13:45;7.85;;;3.42;;
48795;SDS011;34607;48.520;-1.330;2022-07-06T08:16:12;7.03;;;3.38;;
48795;SDS011;34607;48.520;-1.330;2022-07-06T08:18:40;5.93;;;2.92;;
48795;SDS011;34607;48.520;-1.330;2022-07-06T08:21:07;6.28;;;2.92;;
48795;SDS011;34607;48.520;-1.330;2022-07-06T08:23:34;6.13;;;2.90;;
48795;SDS011;34607;48.520;-1.330;2022-07-06T08:26:03;4.95;;;2.92;;
